Terminal Aerodrome Forecast
Issued by NWS

Home | Current Version | Previous Version | Text Only | Print | Product List | Glossary On
Versions: 1 2 3 4 5 6 7 8 9 10 11 12 13 14 15 16 17 18 19 20 21 22 23 24 25 26 27 28
000
FTUS44 KHGX 251009 AAD
TAFLBX
TAF AMD
KLBX 251009Z 2510/2606 20009KT P6SM FEW015 FEW024 OVC035
     FM251100 20007KT P6SM VCSH SCT012
      TEMPO 2512/2514 SHRA BKN012
     FM251500 30010KT P6SM SCT250
     FM252300 VRB03KT P6SM FEW250=

USA.gov is the U.S. government's official web portal to all federal, state and local government web resources and services.